Terminal Aerodrome Forecast
Issued by NWS Billings, MT

Home | Current Version | Previous Version | Graphics & Text | Print | Product List | Glossary On
Versions: 1 2 3 4 5 6 7 8 9 10 11 12 13 14 15 16 17 18 19 20 21 22 23 24 25 26 27 28 29 30 31 32
287
FTUS45 KBYZ 211132
TAFMLS
TAF
KMLS 211132Z 2112/2212 26020G26KT P6SM VCSH BKN040
     FM211600 28024G40KT P6SM BKN080
     FM212100 29020G32KT P6SM SKC
     FM220200 25015KT P6SM SKC WS008/30048KT
     FM220600 22015KT P6SM BKN060 WS014/30047KT=

USA.gov is the U.S. government's official web portal to all federal, state and local government web resources and services.